createdAt,value
2023-04-27T00:01:24.299Z,76.30
2023-04-27T00:03:55.900Z,77.89
2023-04-27T00:06:27.468Z,76.40
2023-04-27T00:08:58.950Z,77.21
2023-04-27T00:11:30.681Z,76.73
2023-04-27T00:14:02.185Z,76.67
2023-04-27T00:16:33.752Z,77.08
2023-04-27T00:19:05.299Z,76.31
2023-04-27T00:21:37.098Z,76.42
2023-04-27T00:24:08.563Z,76.28
2023-04-27T00:26:40.224Z,77.15
2023-04-27T00:29:11.877Z,77.13
2023-04-27T00:31:43.889Z,76.53
2023-04-27T00:34:15.448Z,76.98
2023-04-27T00:36:47.313Z,77.55
2023-04-27T00:39:18.819Z,77.19
2023-04-27T00:41:50.290Z,77.63
2023-04-27T00:44:21.751Z,77.36
2023-04-27T00:46:53.335Z,77.48
2023-04-27T00:49:24.786Z,77.79
2023-04-27T00:51:56.254Z,78.41
2023-04-27T00:54:27.711Z,78.07
2023-04-27T00:56:59.530Z,78.02
2023-04-27T00:59:30.997Z,78.68
2023-04-27T01:02:03.006Z,78.56
2023-04-27T01:04:34.558Z,78.98
2023-04-27T01:07:06.438Z,79.03
2023-04-27T01:09:37.895Z,78.89
2023-04-27T01:12:09.706Z,78.73
2023-04-27T01:14:41.130Z,79.30
2023-04-27T01:17:12.881Z,78.82
2023-04-27T01:19:44.338Z,79.42
2023-04-27T01:22:16.093Z,79.35
2023-04-27T01:24:47.537Z,81.25
2023-04-27T01:27:19.368Z,81.00
2023-04-27T01:29:50.819Z,79.92
2023-04-27T01:32:22.748Z,79.52
2023-04-27T01:34:54.223Z,80.28
2023-04-27T01:37:25.920Z,79.95
2023-04-27T01:39:57.395Z,80.67
2023-04-27T01:42:29.105Z,80.48
2023-04-27T01:45:00.569Z,80.47
2023-04-27T01:47:32.347Z,81.76
2023-04-27T01:50:03.795Z,80.82
2023-04-27T01:52:35.570Z,82.45
2023-04-27T01:55:07.025Z,82.42
2023-04-27T01:57:38.864Z,81.48
2023-04-27T02:00:10.306Z,81.50
2023-04-27T02:02:42.344Z,82.30
2023-04-27T02:05:13.899Z,82.79
2023-04-27T02:07:45.724Z,82.27
2023-04-27T02:10:17.197Z,82.76
2023-04-27T02:12:49.090Z,82.08
2023-04-27T02:15:20.545Z,82.00
2023-04-27T02:17:52.080Z,82.29
2023-04-27T02:20:23.578Z,82.24
2023-04-27T02:22:55.048Z,82.53
2023-04-27T02:25:26.513Z,81.50
2023-04-27T02:27:59.098Z,81.87
2023-04-27T02:30:30.999Z,81.68
2023-04-27T02:33:02.859Z,82.35
2023-04-27T02:35:34.361Z,82.47
2023-04-27T02:38:06.162Z,81.96
2023-04-27T02:40:37.639Z,82.67
2023-04-27T02:43:09.429Z,83.09
2023-04-27T02:45:40.865Z,83.69
2023-04-27T02:48:12.749Z,82.93
2023-04-27T02:50:44.205Z,83.65
2023-04-27T02:53:16.070Z,83.46
2023-04-27T02:55:47.536Z,83.31
2023-04-27T02:58:19.286Z,83.63
2023-04-27T03:00:50.753Z,83.46
2023-04-27T03:03:22.783Z,84.45
2023-04-27T03:05:54.447Z,84.50
2023-04-27T03:08:26.223Z,84.34
2023-04-27T03:10:57.696Z,85.24
2023-04-27T03:13:29.484Z,84.73
2023-04-27T03:16:01.000Z,85.28
2023-04-27T03:18:32.876Z,85.59
2023-04-27T03:21:04.338Z,84.19
2023-04-27T03:23:36.383Z,83.96
2023-04-27T03:26:07.870Z,84.05
2023-04-27T03:28:39.716Z,85.28
2023-04-27T03:31:11.242Z,84.18
2023-04-27T03:33:43.064Z,84.09
2023-04-27T03:36:14.503Z,84.74
2023-04-27T03:38:46.003Z,84.52
2023-04-27T03:41:17.508Z,84.66
2023-04-27T03:43:49.295Z,84.49
2023-04-27T03:46:20.804Z,86.36
2023-04-27T03:48:52.285Z,85.14
2023-04-27T03:51:23.748Z,85.95
2023-04-27T03:53:55.335Z,85.33
2023-04-27T03:56:26.797Z,85.90
2023-04-27T03:58:58.614Z,85.75
2023-04-27T04:01:30.104Z,84.98
2023-04-27T04:04:02.048Z,85.25
2023-04-27T04:06:33.594Z,85.12
2023-04-27T04:09:05.447Z,85.26
2023-04-27T04:11:36.918Z,84.30
2023-04-27T04:14:08.440Z,84.50
2023-04-27T04:16:39.874Z,83.56
2023-04-27T04:19:11.623Z,83.02
2023-04-27T04:21:43.210Z,83.75
2023-04-27T04:24:14.900Z,83.63
2023-04-27T04:26:46.369Z,84.75
2023-04-27T04:29:17.990Z,84.05
2023-04-27T04:31:49.482Z,83.01
2023-04-27T04:34:21.247Z,83.69
2023-04-27T04:36:52.697Z,83.60
2023-04-27T04:39:24.500Z,83.22
2023-04-27T04:41:55.975Z,82.76
2023-04-27T04:44:27.742Z,84.17
2023-04-27T04:46:59.287Z,82.39
2023-04-27T04:49:31.233Z,81.70
2023-04-27T04:52:02.719Z,82.30
2023-04-27T04:54:34.205Z,82.13
2023-04-27T04:57:05.658Z,80.50
2023-04-27T04:59:37.415Z,82.56
2023-04-27T05:02:08.886Z,80.11
2023-04-27T05:04:40.753Z,79.87
2023-04-27T05:07:14.710Z,79.50
2023-04-27T05:09:47.157Z,79.41
2023-04-27T05:12:18.691Z,77.46
2023-04-27T05:14:50.198Z,77.79
2023-04-27T05:17:21.753Z,77.48
2023-04-27T05:19:53.342Z,78.35
2023-04-27T05:22:24.828Z,76.81
2023-04-27T05:24:56.301Z,77.16
2023-04-27T05:27:27.737Z,76.07
2023-04-27T05:29:59.664Z,74.43
2023-04-27T05:32:31.185Z,73.76
2023-04-27T05:35:02.730Z,74.93
2023-04-27T05:37:34.261Z,72.76
2023-04-27T05:40:05.903Z,70.98
2023-04-27T05:42:37.530Z,72.87
2023-04-27T05:45:09.364Z,71.22
2023-04-27T05:47:40.869Z,70.32
2023-04-27T05:50:12.715Z,68.13
2023-04-27T05:52:44.242Z,70.57
2023-04-27T05:55:15.960Z,68.24
2023-04-27T05:57:51.684Z,67.70
2023-04-27T06:00:29.178Z,67.65
2023-04-27T06:03:00.825Z,66.14
2023-04-27T06:05:32.804Z,66.06
2023-04-27T06:08:04.278Z,65.76
2023-04-27T06:10:36.101Z,65.55
2023-04-27T06:13:07.590Z,65.94
2023-04-27T06:15:39.392Z,65.44
2023-04-27T06:18:11.020Z,66.53
2023-04-27T06:20:43.096Z,67.02
2023-04-27T06:23:14.528Z,65.94
2023-04-27T06:25:46.337Z,65.48
2023-04-27T06:28:17.838Z,64.50
2023-04-27T06:30:49.285Z,63.89
2023-04-27T06:33:20.751Z,61.80
2023-04-27T06:35:52.246Z,59.46
2023-04-27T06:38:23.735Z,60.77
2023-04-27T06:40:55.234Z,59.24
2023-04-27T06:43:26.972Z,60.18
2023-04-27T06:45:58.525Z,59.15
2023-04-27T06:48:30.142Z,59.11
2023-04-27T06:51:01.683Z,57.06
2023-04-27T06:53:33.182Z,58.43
2023-04-27T06:56:04.820Z,57.40
2023-04-27T06:58:36.268Z,58.15
2023-04-27T07:01:07.997Z,58.40
2023-04-27T07:03:39.620Z,55.85
2023-04-27T07:06:11.217Z,55.54
2023-04-27T07:08:43.095Z,55.05
2023-04-27T07:11:14.596Z,54.82
2023-04-27T07:13:46.507Z,54.64
2023-04-27T07:16:18.021Z,57.62
2023-04-27T07:18:49.537Z,56.13
2023-04-27T07:21:21.014Z,54.45
2023-04-27T07:23:54.111Z,57.10
2023-04-27T07:26:26.557Z,55.00
2023-04-27T07:28:58.399Z,53.58
2023-04-27T07:31:29.937Z,52.79
2023-04-27T07:34:01.628Z,48.59
2023-04-27T07:36:33.086Z,47.15
2023-04-27T07:39:04.888Z,47.10
2023-04-27T07:41:36.374Z,50.87
2023-04-27T07:44:08.134Z,50.26
2023-04-27T07:46:39.581Z,49.33
2023-04-27T07:49:11.624Z,50.39
2023-04-27T07:51:43.331Z,50.70
2023-04-27T07:54:15.055Z,51.62
2023-04-27T07:56:46.551Z,49.92
2023-04-27T07:59:18.602Z,49.25
2023-04-27T08:01:50.135Z,49.08
2023-04-27T08:04:22.466Z,49.13
2023-04-27T08:06:54.854Z,50.69
2023-04-27T08:09:27.328Z,51.25
2023-04-27T08:11:58.780Z,52.37
2023-04-27T08:14:30.587Z,53.85
2023-04-27T08:17:02.120Z,50.66
2023-04-27T08:19:34.094Z,50.23
2023-04-27T08:22:05.526Z,48.15
2023-04-27T08:24:37.307Z,48.77
2023-04-27T08:27:08.779Z,50.34
2023-04-27T08:29:40.434Z,49.88
2023-04-27T08:32:11.902Z,51.85
2023-04-27T08:34:43.761Z,52.67
2023-04-27T08:37:15.227Z,47.64
2023-04-27T08:39:47.215Z,49.81
2023-04-27T08:42:18.684Z,50.56
2023-04-27T08:44:50.170Z,52.05
2023-04-27T08:47:28.321Z,54.74
2023-04-27T08:50:10.734Z,54.81
2023-04-27T08:52:42.572Z,55.24
2023-04-27T08:55:16.499Z,54.55
2023-04-27T08:57:48.507Z,53.82
2023-04-27T09:00:19.972Z,54.31
2023-04-27T09:02:51.638Z,54.28
2023-04-27T09:05:23.468Z,55.89
2023-04-27T09:07:55.000Z,56.30
2023-04-27T09:10:26.438Z,57.18
2023-04-27T09:12:58.243Z,57.19
2023-04-27T09:15:29.696Z,55.89
2023-04-27T09:18:01.395Z,53.86
2023-04-27T09:20:32.883Z,54.30
2023-04-27T09:23:04.763Z,54.65
2023-04-27T09:25:36.213Z,52.58
2023-04-27T09:28:07.908Z,50.55
2023-04-27T09:30:39.368Z,48.10
2023-04-27T09:33:11.105Z,46.99
2023-04-27T09:35:42.574Z,42.54
2023-04-27T09:38:15.372Z,46.17
2023-04-27T09:40:48.086Z,47.09
2023-04-27T09:43:19.765Z,46.72
2023-04-27T09:45:51.301Z,49.19
2023-04-27T09:48:23.169Z,49.65
2023-04-27T09:50:54.670Z,50.10
2023-04-27T09:53:26.595Z,50.27
2023-04-27T09:55:58.099Z,49.39
2023-04-27T09:58:29.643Z,49.56
2023-04-27T10:01:01.220Z,51.49
2023-04-27T10:03:33.285Z,51.86
2023-04-27T10:06:04.896Z,54.78
2023-04-27T10:08:36.551Z,53.42
2023-04-27T10:11:08.060Z,53.21
2023-04-27T10:13:39.582Z,53.83
2023-04-27T10:16:11.100Z,51.73
2023-04-27T10:18:42.688Z,49.94
2023-04-27T10:21:14.182Z,48.78
2023-04-27T10:23:45.681Z,47.98
2023-04-27T10:26:17.166Z,50.14
2023-04-27T10:28:48.967Z,51.22
2023-04-27T10:31:20.534Z,50.97
2023-04-27T10:33:52.098Z,49.36
2023-04-27T10:36:23.604Z,49.87
2023-04-27T10:38:55.121Z,47.76
2023-04-27T10:41:26.966Z,46.43
2023-04-27T10:43:58.524Z,44.11
2023-04-27T10:46:30.061Z,44.75
2023-04-27T10:49:01.601Z,41.76
2023-04-27T10:51:33.661Z,43.23
2023-04-27T10:54:05.150Z,40.18
2023-04-27T10:56:37.040Z,38.42
2023-04-27T10:59:08.533Z,42.03
2023-04-27T11:01:40.556Z,41.25
2023-04-27T11:04:12.182Z,43.14
2023-04-27T11:06:43.852Z,42.64
2023-04-27T11:09:16.365Z,44.99
2023-04-27T11:11:48.186Z,44.47
2023-04-27T11:14:19.718Z,44.42
2023-04-27T11:16:51.227Z,43.84
2023-04-27T11:19:22.718Z,44.21
2023-04-27T11:21:54.203Z,43.57
2023-04-27T11:24:25.690Z,41.75
2023-04-27T11:26:57.200Z,41.13
2023-04-27T11:29:28.732Z,40.59
2023-04-27T11:32:00.424Z,40.85
2023-04-27T11:34:31.945Z,41.27
2023-04-27T11:37:17.425Z,37.86
2023-04-27T11:39:50.112Z,39.09
2023-04-27T11:42:21.992Z,37.00
2023-04-27T11:44:53.480Z,37.58
2023-04-27T11:47:25.433Z,37.71
2023-04-27T11:49:57.016Z,37.46
2023-04-27T11:52:28.687Z,37.99
2023-04-27T11:55:00.193Z,40.34
2023-04-27T11:57:32.089Z,38.77
2023-04-27T12:00:03.616Z,38.50
2023-04-27T12:02:35.541Z,39.32
2023-04-27T12:05:07.322Z,38.18
2023-04-27T12:07:39.420Z,36.52
2023-04-27T12:10:10.928Z,36.43
2023-04-27T12:12:42.875Z,37.20
2023-04-27T12:15:14.513Z,37.71
2023-04-27T12:17:46.680Z,35.97
2023-04-27T12:20:18.207Z,35.61
2023-04-27T12:22:50.164Z,36.35
2023-04-27T12:25:21.675Z,34.90
2023-04-27T12:27:53.167Z,34.44
2023-04-27T12:30:24.657Z,37.15
2023-04-27T12:32:56.257Z,35.88
2023-04-27T12:35:27.788Z,34.74
2023-04-27T12:37:59.628Z,34.47
2023-04-27T12:40:31.141Z,32.49
2023-04-27T12:43:02.646Z,32.39
2023-04-27T12:45:34.161Z,30.77
2023-04-27T12:48:06.092Z,33.15
2023-04-27T12:50:37.630Z,34.09
2023-04-27T12:53:09.519Z,33.96
2023-04-27T12:55:41.186Z,36.21
2023-04-27T12:58:12.792Z,36.57
2023-04-27T13:00:44.332Z,36.87
2023-04-27T13:03:16.502Z,37.17
2023-04-27T13:05:48.107Z,37.57
2023-04-27T13:08:19.974Z,38.41
2023-04-27T13:10:51.504Z,37.55
2023-04-27T13:13:23.324Z,37.38
2023-04-27T13:15:54.829Z,37.13
2023-04-27T13:18:26.547Z,35.25
2023-04-27T13:20:58.013Z,34.56
2023-04-27T13:23:29.821Z,34.04
2023-04-27T13:26:01.329Z,33.66
2023-04-27T13:28:33.215Z,35.55
2023-04-27T13:31:05.221Z,34.41
2023-04-27T13:33:36.779Z,36.24
2023-04-27T13:36:08.618Z,34.44
2023-04-27T13:38:40.172Z,34.34
2023-04-27T13:41:12.004Z,35.15
2023-04-27T13:43:43.532Z,34.37
2023-04-27T13:46:15.411Z,36.67
2023-04-27T13:48:47.065Z,36.00
2023-04-27T13:51:18.900Z,35.75
2023-04-27T13:53:50.413Z,37.39
2023-04-27T13:56:21.978Z,36.19
2023-04-27T13:58:53.522Z,36.74
2023-04-27T14:01:25.410Z,34.42
2023-04-27T14:03:57.149Z,34.19
2023-04-27T14:06:28.746Z,32.72
2023-04-27T14:09:00.309Z,32.32
2023-04-27T14:11:39.410Z,29.80
2023-04-27T14:14:16.786Z,31.43
2023-04-27T14:16:48.368Z,32.33
2023-04-27T14:19:20.003Z,33.45
2023-04-27T14:21:51.520Z,34.93
2023-04-27T14:24:23.001Z,34.70
2023-04-27T14:26:54.532Z,34.94
2023-04-27T14:29:26.035Z,35.87
2023-04-27T14:31:57.617Z,35.46
2023-04-27T14:34:29.109Z,35.46
2023-04-27T14:37:00.872Z,35.53
2023-04-27T14:39:32.420Z,36.95
2023-04-27T14:42:04.319Z,36.18
2023-04-27T14:44:35.819Z,34.52
2023-04-27T14:47:07.796Z,32.32
2023-04-27T14:49:39.498Z,32.94
2023-04-27T14:52:11.344Z,32.49
2023-04-27T14:54:42.872Z,32.10
2023-04-27T14:57:14.739Z,32.28
2023-04-27T14:59:46.256Z,32.63
2023-04-27T15:02:18.152Z,32.92
2023-04-27T15:04:49.744Z,29.22
2023-04-27T15:07:21.647Z,27.41
2023-04-27T15:09:53.162Z,26.75
2023-04-27T15:12:25.133Z,28.89
2023-04-27T15:14:56.651Z,26.98
2023-04-27T15:17:28.517Z,29.90
2023-04-27T15:20:00.053Z,27.75
2023-04-27T15:22:32.032Z,29.32
2023-04-27T15:25:03.618Z,29.51
2023-04-27T15:27:35.138Z,30.79
2023-04-27T15:30:06.634Z,29.18
2023-04-27T15:32:38.429Z,30.29
2023-04-27T15:35:09.938Z,27.84
2023-04-27T15:37:41.564Z,27.83
2023-04-27T15:40:13.089Z,30.49
2023-04-27T15:42:44.847Z,32.38
2023-04-27T15:45:16.396Z,33.57
2023-04-27T15:47:48.093Z,33.78
2023-04-27T15:50:20.234Z,34.21
2023-04-27T15:52:51.774Z,34.34
2023-04-27T15:55:23.306Z,34.75
2023-04-27T15:57:54.853Z,35.79
2023-04-27T16:00:26.368Z,35.57
2023-04-27T16:02:58.410Z,36.32
2023-04-27T16:05:30.034Z,36.78
2023-04-27T16:08:02.062Z,37.11
2023-04-27T16:10:33.563Z,37.78
2023-04-27T16:13:05.099Z,38.37
2023-04-27T16:15:36.617Z,38.05
2023-04-27T16:18:08.589Z,37.96
2023-04-27T16:20:40.242Z,38.91
2023-04-27T16:23:12.235Z,38.98
2023-04-27T16:25:43.848Z,38.87
2023-04-27T16:28:15.379Z,39.75
2023-04-27T16:30:46.873Z,39.45
2023-04-27T16:33:18.755Z,38.23
2023-04-27T16:35:50.355Z,37.99
2023-04-27T16:38:22.145Z,37.82
2023-04-27T16:40:53.642Z,36.95
2023-04-27T16:43:25.461Z,36.08
2023-04-27T16:45:57.051Z,37.45
2023-04-27T16:48:28.891Z,36.35
2023-04-27T16:51:00.439Z,37.25
2023-04-27T16:53:32.342Z,37.68
2023-04-27T16:56:03.849Z,37.07
2023-04-27T16:58:35.680Z,37.31
2023-04-27T17:01:07.230Z,36.54
2023-04-27T17:03:39.166Z,37.26
2023-04-27T17:06:10.731Z,37.45
2023-04-27T17:08:42.486Z,37.71
2023-04-27T17:11:13.981Z,38.05
2023-04-27T17:13:46.130Z,38.86
2023-04-27T17:16:17.691Z,38.59
2023-04-27T17:18:49.466Z,39.26
2023-04-27T17:21:21.000Z,38.46
2023-04-27T17:23:52.559Z,38.27
2023-04-27T17:26:24.090Z,38.39
2023-04-27T17:28:55.594Z,38.97
2023-04-27T17:31:27.472Z,39.19
2023-04-27T17:33:58.965Z,38.49
2023-04-27T17:36:30.483Z,39.05
2023-04-27T17:39:02.003Z,38.74
2023-04-27T17:41:35.467Z,39.44
2023-04-27T17:44:08.379Z,40.62
2023-04-27T17:46:40.216Z,40.90
2023-04-27T17:49:11.985Z,41.64
2023-04-27T17:51:44.258Z,43.13
2023-04-27T17:54:15.826Z,41.62
2023-04-27T17:56:47.372Z,42.38
2023-04-27T17:59:19.104Z,42.84
2023-04-27T18:01:50.761Z,42.60
2023-04-27T18:04:22.778Z,42.59
2023-04-27T18:06:54.459Z,43.62
2023-04-27T18:09:26.006Z,43.07
2023-04-27T18:11:57.891Z,44.19
2023-04-27T18:14:29.410Z,45.02
2023-04-27T18:17:01.096Z,44.53
2023-04-27T18:19:32.823Z,44.74
2023-04-27T18:22:04.662Z,44.27
2023-04-27T18:24:36.161Z,44.25
2023-04-27T18:27:08.065Z,45.39
2023-04-27T18:29:39.630Z,45.46
2023-04-27T18:32:11.819Z,46.11
2023-04-27T18:34:43.404Z,46.15
2023-04-27T18:37:15.096Z,47.10
2023-04-27T18:39:46.576Z,47.63
2023-04-27T18:42:18.404Z,47.75
2023-04-27T18:44:50.000Z,47.98
2023-04-27T18:47:22.092Z,48.46
2023-04-27T18:49:53.639Z,48.74
2023-04-27T18:52:25.163Z,48.69
2023-04-27T18:54:56.678Z,49.92
2023-04-27T18:57:28.577Z,50.57
2023-04-27T19:00:00.106Z,50.77
2023-04-27T19:02:32.189Z,50.34
2023-04-27T19:05:12.414Z,54.01
2023-04-27T19:07:45.538Z,55.64
2023-04-27T19:10:17.051Z,53.01
2023-04-27T19:12:49.403Z,53.52
2023-04-27T19:15:20.902Z,53.42
2023-04-27T19:17:58.569Z,53.63
2023-04-27T19:20:38.349Z,55.20
2023-04-27T19:23:10.423Z,54.55
2023-04-27T19:25:41.921Z,56.83
2023-04-27T19:28:13.507Z,55.23
2023-04-27T19:30:45.060Z,54.84
2023-04-27T19:33:18.543Z,55.39
2023-04-27T19:35:51.205Z,56.63
2023-04-27T19:38:22.691Z,56.82
2023-04-27T19:40:54.220Z,57.44
2023-04-27T19:43:26.072Z,55.66
2023-04-27T19:45:57.609Z,58.80
2023-04-27T19:48:29.348Z,58.69
2023-04-27T19:51:00.889Z,58.94
2023-04-27T19:53:32.739Z,60.08
2023-04-27T19:56:04.215Z,59.56
2023-04-27T19:58:36.062Z,57.72
2023-04-27T20:01:07.566Z,57.97
2023-04-27T20:03:39.619Z,57.06
2023-04-27T20:06:11.378Z,60.82
2023-04-27T20:08:43.660Z,58.11
2023-04-27T20:11:15.150Z,60.95
2023-04-27T20:13:46.744Z,63.97
2023-04-27T20:16:18.306Z,64.35
2023-04-27T20:18:49.815Z,63.71
2023-04-27T20:21:21.309Z,64.77
2023-04-27T20:23:52.803Z,65.90
2023-04-27T20:26:24.277Z,65.79
2023-04-27T20:28:55.774Z,68.56
2023-04-27T20:31:27.316Z,68.30
2023-04-27T20:33:58.851Z,68.12
2023-04-27T20:36:30.343Z,64.59
2023-04-27T20:39:02.189Z,62.64
2023-04-27T20:41:33.688Z,59.88
2023-04-27T20:44:05.369Z,62.50
2023-04-27T20:46:36.838Z,67.29
2023-04-27T20:49:08.711Z,67.95
2023-04-27T20:51:40.236Z,68.11
2023-04-27T20:54:12.100Z,65.64
2023-04-27T20:56:43.594Z,64.56
2023-04-27T20:59:15.444Z,63.04
2023-04-27T21:01:46.986Z,63.29
2023-04-27T21:04:19.081Z,65.18
2023-04-27T21:06:52.978Z,70.01
2023-04-27T21:09:24.865Z,69.88
2023-04-27T21:11:56.384Z,68.91
2023-04-27T21:14:28.066Z,67.33
2023-04-27T21:16:59.644Z,67.93
2023-04-27T21:19:31.336Z,69.14
2023-04-27T21:22:02.806Z,69.70
2023-04-27T21:24:34.640Z,69.92
2023-04-27T21:27:06.104Z,70.44
2023-04-27T21:29:37.853Z,72.00
2023-04-27T21:32:09.312Z,74.28
2023-04-27T21:34:41.069Z,75.05
2023-04-27T21:37:12.537Z,76.24
2023-04-27T21:39:44.389Z,77.82
2023-04-27T21:42:16.172Z,79.53
2023-04-27T21:44:47.688Z,77.61
2023-04-27T21:47:19.555Z,77.73
2023-04-27T21:49:52.486Z,78.94
2023-04-27T21:52:24.540Z,81.31
2023-04-27T21:54:55.992Z,80.71
2023-04-27T21:57:27.840Z,81.29
2023-04-27T21:59:59.292Z,81.27
2023-04-27T22:02:31.196Z,80.55
2023-04-27T22:05:02.939Z,79.73
2023-04-27T22:07:35.160Z,81.99
2023-04-27T22:10:06.611Z,82.96
2023-04-27T22:12:38.244Z,81.20
2023-04-27T22:15:09.670Z,81.42
2023-04-27T22:17:41.380Z,81.59
2023-04-27T22:20:12.854Z,83.64
2023-04-27T22:22:44.708Z,83.81
2023-04-27T22:25:16.165Z,80.85
2023-04-27T22:27:47.623Z,83.16
2023-04-27T22:30:19.074Z,82.69
2023-04-27T22:32:50.590Z,82.76
2023-04-27T22:35:27.092Z,81.43
2023-04-27T22:37:59.382Z,83.80
2023-04-27T22:40:30.812Z,84.77
2023-04-27T22:43:02.283Z,84.66
2023-04-27T22:45:33.762Z,82.63
2023-04-27T22:48:05.837Z,82.03
2023-04-27T22:50:37.344Z,80.82
2023-04-27T22:53:09.062Z,82.39
2023-04-27T22:55:40.526Z,85.44
2023-04-27T22:58:11.982Z,83.06
2023-04-27T23:00:43.461Z,84.64
2023-04-27T23:03:15.435Z,82.89
2023-04-27T23:05:46.985Z,82.88
2023-04-27T23:08:18.656Z,83.14
2023-04-27T23:10:50.110Z,86.13
2023-04-27T23:13:21.867Z,87.40
2023-04-27T23:15:53.299Z,87.94
2023-04-27T23:18:24.758Z,86.84
2023-04-27T23:20:56.205Z,85.73
2023-04-27T23:23:27.956Z,84.45
2023-04-27T23:25:59.419Z,85.55
2023-04-27T23:28:31.225Z,85.70
2023-04-27T23:31:02.709Z,85.76
2023-04-27T23:36:30.484Z,89.34
2023-04-27T23:39:02.245Z,87.76
2023-04-27T23:41:33.948Z,86.43
2023-04-27T23:44:05.397Z,88.20
2023-04-27T23:46:37.262Z,90.57
2023-04-27T23:49:08.741Z,91.89
2023-04-27T23:51:40.653Z,91.65
2023-04-27T23:54:12.120Z,89.52
2023-04-27T23:56:43.947Z,90.01
2023-04-27T23:59:15.432Z,87.98
